sensor_id;sensor_type;location;lat;lon;timestamp;P1;durP1;ratioP1;P2;durP2;ratioP2
25435;SDS011;13363;52.772;-3.890;2023-06-19T08:38:46;7.77;;;2.83;;
25435;SDS011;13363;52.772;-3.890;2023-06-19T08:41:14;6.57;;;3.50;;
25435;SDS011;13363;52.772;-3.890;2023-06-19T08:43:46;4.53;;;3.50;;
25435;SDS011;13363;52.772;-3.890;2023-06-19T08:46:16;7.43;;;3.40;;
25435;SDS011;13363;52.772;-3.890;2023-06-19T08:48:43;4.90;;;3.20;;
25435;SDS011;13363;52.772;-3.890;2023-06-19T08:51:09;7.17;;;3.40;;
25435;SDS011;13363;52.772;-3.890;2023-06-19T08:53:43;5.13;;;3.10;;
25435;SDS011;13363;52.772;-3.890;2023-06-19T08:56:18;5.37;;;2.93;;
25435;SDS011;13363;52.772;-3.890;2023-06-19T08:58:43;5.40;;;4.07;;
25435;SDS011;13363;52.772;-3.890;2023-06-19T09:01:09;4.60;;;4.10;;
25435;SDS011;13363;52.772;-3.890;2023-06-19T09:03:35;9.13;;;3.70;;
25435;SDS011;13363;52.772;-3.890;2023-06-19T09:06:07;3.80;;;3.47;;
25435;SDS011;13363;52.772;-3.890;2023-06-19T09:08:34;6.67;;;3.93;;
25435;SDS011;13363;52.772;-3.890;2023-06-19T09:11:01;4.70;;;3.20;;
25435;SDS011;13363;52.772;-3.890;2023-06-19T09:13:28;6.40;;;4.20;;
25435;SDS011;13363;52.772;-3.890;2023-06-19T09:16:01;7.10;;;3.73;;
25435;SDS011;13363;52.772;-3.890;2023-06-19T09:18:32;5.57;;;3.23;;
25435;SDS011;13363;52.772;-3.890;2023-06-19T09:21:17;6.23;;;3.23;;
25435;SDS011;13363;52.772;-3.890;2023-06-19T09:23:47;5.88;;;3.97;;
25435;SDS011;13363;52.772;-3.890;2023-06-19T09:26:15;5.20;;;3.53;;
25435;SDS011;13363;52.772;-3.890;2023-06-19T09:28:41;5.07;;;3.40;;
25435;SDS011;13363;52.772;-3.890;2023-06-19T09:31:08;4.33;;;3.23;;
25435;SDS011;13363;52.772;-3.890;2023-06-19T09:33:34;7.13;;;3.60;;
25435;SDS011;13363;52.772;-3.890;2023-06-19T09:36:13;3.90;;;2.72;;
25435;SDS011;13363;52.772;-3.890;2023-06-19T09:38:39;3.72;;;3.13;;
25435;SDS011;13363;52.772;-3.890;2023-06-19T09:41:08;6.05;;;3.53;;
25435;SDS011;13363;52.772;-3.890;2023-06-19T09:43:38;5.25;;;2.78;;
25435;SDS011;13363;52.772;-3.890;2023-06-19T09:46:07;4.85;;;3.35;;
25435;SDS011;13363;52.772;-3.890;2023-06-19T09:48:34;3.57;;;3.00;;
25435;SDS011;13363;52.772;-3.890;2023-06-19T09:51:10;3.53;;;3.22;;
25435;SDS011;13363;52.772;-3.890;2023-06-19T09:53:36;6.20;;;3.20;;
25435;SDS011;13363;52.772;-3.890;2023-06-19T09:56:02;5.50;;;3.60;;
25435;SDS011;13363;52.772;-3.890;2023-06-19T09:58:28;5.10;;;3.00;;
25435;SDS011;13363;52.772;-3.890;2023-06-19T10:00:55;7.25;;;3.38;;
25435;SDS011;13363;52.772;-3.890;2023-06-19T10:03:29;4.47;;;3.43;;
25435;SDS011;13363;52.772;-3.890;2023-06-19T10:05:59;5.87;;;2.97;;
25435;SDS011;13363;52.772;-3.890;2023-06-19T10:08:27;4.63;;;2.90;;
25435;SDS011;13363;52.772;-3.890;2023-06-19T10:10:56;5.50;;;3.47;;
25435;SDS011;13363;52.772;-3.890;2023-06-19T10:13:30;4.05;;;3.00;;
25435;SDS011;13363;52.772;-3.890;2023-06-19T10:16:00;3.78;;;2.92;;
25435;SDS011;13363;52.772;-3.890;2023-06-19T10:18:26;3.22;;;2.92;;
25435;SDS011;13363;52.772;-3.890;2023-06-19T10:20:53;3.17;;;2.60;;
25435;SDS011;13363;52.772;-3.890;2023-06-19T10:23:21;3.50;;;3.13;;
25435;SDS011;13363;52.772;-3.890;2023-06-19T10:25:56;8.97;;;3.20;;
25435;SDS011;13363;52.772;-3.890;2023-06-19T10:28:27;4.22;;;3.33;;
25435;SDS011;13363;52.772;-3.890;2023-06-19T10:31:01;3.25;;;2.97;;
25435;SDS011;13363;52.772;-3.890;2023-06-19T10:33:31;5.32;;;3.35;;
25435;SDS011;13363;52.772;-3.890;2023-06-19T10:36:20;3.50;;;3.08;;
25435;SDS011;13363;52.772;-3.890;2023-06-19T10:38:48;5.20;;;3.17;;
25435;SDS011;13363;52.772;-3.890;2023-06-19T10:41:18;4.28;;;3.47;;
25435;SDS011;13363;52.772;-3.890;2023-06-19T10:44:04;6.78;;;3.60;;
25435;SDS011;13363;52.772;-3.890;2023-06-19T10:46:35;3.70;;;3.40;;
25435;SDS011;13363;52.772;-3.890;2023-06-19T10:49:02;3.87;;;3.37;;
25435;SDS011;13363;52.772;-3.890;2023-06-19T10:51:39;4.47;;;3.63;;
25435;SDS011;13363;52.772;-3.890;2023-06-19T10:54:08;3.63;;;3.10;;
25435;SDS011;13363;52.772;-3.890;2023-06-19T10:56:35;4.83;;;3.13;;
25435;SDS011;13363;52.772;-3.890;2023-06-19T10:59:01;6.80;;;3.67;;
25435;SDS011;13363;52.772;-3.890;2023-06-19T11:01:34;4.57;;;3.60;;
25435;SDS011;13363;52.772;-3.890;2023-06-19T11:04:05;4.17;;;3.73;;
25435;SDS011;13363;52.772;-3.890;2023-06-19T11:06:33;12.13;;;3.77;;
25435;SDS011;13363;52.772;-3.890;2023-06-19T11:08:59;6.30;;;4.37;;
25435;SDS011;13363;52.772;-3.890;2023-06-19T11:11:36;5.63;;;4.63;;
25435;SDS011;13363;52.772;-3.890;2023-06-19T11:14:10;5.07;;;3.50;;
25435;SDS011;13363;52.772;-3.890;2023-06-19T11:16:38;3.27;;;3.07;;
25435;SDS011;13363;52.772;-3.890;2023-06-19T11:19:13;3.50;;;3.17;;
25435;SDS011;13363;52.772;-3.890;2023-06-19T11:21:47;3.33;;;3.00;;
25435;SDS011;13363;52.772;-3.890;2023-06-19T11:24:16;3.07;;;2.77;;
25435;SDS011;13363;52.772;-3.890;2023-06-19T11:26:42;2.80;;;2.60;;
25435;SDS011;13363;52.772;-3.890;2023-06-19T11:31:45;3.00;;;2.80;;
25435;SDS011;13363;52.772;-3.890;2023-06-19T11:34:14;2.83;;;2.27;;
25435;SDS011;13363;52.772;-3.890;2023-06-19T11:36:42;3.20;;;2.20;;
25435;SDS011;13363;52.772;-3.890;2023-06-19T11:39:12;2.95;;;2.33;;
25435;SDS011;13363;52.772;-3.890;2023-06-19T11:41:38;2.30;;;2.20;;
25435;SDS011;13363;52.772;-3.890;2023-06-19T11:44:06;2.87;;;2.67;;
25435;SDS011;13363;52.772;-3.890;2023-06-19T11:46:34;2.53;;;2.33;;
25435;SDS011;13363;52.772;-3.890;2023-06-19T11:49:07;4.50;;;2.40;;
25435;SDS011;13363;52.772;-3.890;2023-06-19T11:51:33;2.57;;;2.37;;
25435;SDS011;13363;52.772;-3.890;2023-06-19T11:53:59;3.00;;;2.70;;
25435;SDS011;13363;52.772;-3.890;2023-06-19T11:56:25;3.40;;;2.30;;
25435;SDS011;13363;52.772;-3.890;2023-06-19T11:59:06;5.77;;;2.50;;
25435;SDS011;13363;52.772;-3.890;2023-06-19T12:01:33;2.77;;;2.37;;
25435;SDS011;13363;52.772;-3.890;2023-06-19T12:04:00;3.87;;;2.67;;
25435;SDS011;13363;52.772;-3.890;2023-06-19T12:06:27;2.77;;;2.37;;
25435;SDS011;13363;52.772;-3.890;2023-06-19T12:08:53;2.37;;;2.27;;
25435;SDS011;13363;52.772;-3.890;2023-06-19T12:11:19;2.83;;;2.43;;
25435;SDS011;13363;52.772;-3.890;2023-06-19T12:13:45;2.70;;;2.50;;
25435;SDS011;13363;52.772;-3.890;2023-06-19T12:16:11;2.80;;;2.30;;
25435;SDS011;13363;52.772;-3.890;2023-06-19T12:18:37;3.33;;;2.45;;
25435;SDS011;13363;52.772;-3.890;2023-06-19T12:21:03;2.57;;;2.37;;
25435;SDS011;13363;52.772;-3.890;2023-06-19T12:23:29;5.57;;;2.50;;
25435;SDS011;13363;52.772;-3.890;2023-06-19T12:25:55;3.00;;;2.27;;
25435;SDS011;13363;52.772;-3.890;2023-06-19T12:28:21;2.40;;;2.20;;
25435;SDS011;13363;52.772;-3.890;2023-06-19T12:30:47;2.75;;;2.20;;
25435;SDS011;13363;52.772;-3.890;2023-06-19T12:33:19;3.75;;;2.55;;
25435;SDS011;13363;52.772;-3.890;2023-06-19T12:35:48;2.83;;;2.27;;
25435;SDS011;13363;52.772;-3.890;2023-06-19T12:38:15;2.43;;;2.07;;
25435;SDS011;13363;52.772;-3.890;2023-06-19T12:40:44;3.63;;;2.07;;
25435;SDS011;13363;52.772;-3.890;2023-06-19T12:43:10;3.03;;;2.25;;
25435;SDS011;13363;52.772;-3.890;2023-06-19T12:45:36;2.20;;;2.10;;
25435;SDS011;13363;52.772;-3.890;2023-06-19T12:48:02;3.00;;;2.20;;
25435;SDS011;13363;52.772;-3.890;2023-06-19T12:50:29;3.35;;;1.90;;
25435;SDS011;13363;52.772;-3.890;2023-06-19T12:52:55;2.47;;;1.90;;
25435;SDS011;13363;52.772;-3.890;2023-06-19T12:55:20;2.77;;;1.70;;
25435;SDS011;13363;52.772;-3.890;2023-06-19T12:57:46;4.30;;;1.80;;
25435;SDS011;13363;52.772;-3.890;2023-06-19T13:00:12;2.60;;;2.00;;
25435;SDS011;13363;52.772;-3.890;2023-06-19T13:02:39;3.80;;;2.30;;
25435;SDS011;13363;52.772;-3.890;2023-06-19T13:05:08;2.57;;;2.10;;
25435;SDS011;13363;52.772;-3.890;2023-06-19T13:07:36;3.13;;;2.43;;
25435;SDS011;13363;52.772;-3.890;2023-06-19T13:10:02;2.50;;;2.23;;
25435;SDS011;13363;52.772;-3.890;2023-06-19T13:12:28;6.87;;;2.40;;
25435;SDS011;13363;52.772;-3.890;2023-06-19T13:14:54;4.20;;;2.17;;
25435;SDS011;13363;52.772;-3.890;2023-06-19T13:17:20;2.17;;;2.07;;
25435;SDS011;13363;52.772;-3.890;2023-06-19T13:19:46;3.83;;;2.20;;
25435;SDS011;13363;52.772;-3.890;2023-06-19T13:22:11;2.70;;;1.97;;
25435;SDS011;13363;52.772;-3.890;2023-06-19T13:24:39;3.37;;;2.40;;
25435;SDS011;13363;52.772;-3.890;2023-06-19T13:27:09;2.47;;;1.90;;
25435;SDS011;13363;52.772;-3.890;2023-06-19T13:29:35;2.17;;;1.87;;
25435;SDS011;13363;52.772;-3.890;2023-06-19T13:32:13;1.80;;;1.70;;
25435;SDS011;13363;52.772;-3.890;2023-06-19T13:34:38;2.30;;;1.97;;
25435;SDS011;13363;52.772;-3.890;2023-06-19T13:37:04;1.90;;;1.80;;
25435;SDS011;13363;52.772;-3.890;2023-06-19T13:39:30;1.70;;;1.60;;
25435;SDS011;13363;52.772;-3.890;2023-06-19T13:41:56;3.15;;;1.90;;
25435;SDS011;13363;52.772;-3.890;2023-06-19T13:44:25;1.70;;;1.60;;
25435;SDS011;13363;52.772;-3.890;2023-06-19T13:46:52;1.97;;;1.40;;
25435;SDS011;13363;52.772;-3.890;2023-06-19T13:49:24;4.63;;;1.77;;
25435;SDS011;13363;52.772;-3.890;2023-06-19T13:51:50;2.78;;;1.48;;
25435;SDS011;13363;52.772;-3.890;2023-06-19T13:54:16;1.48;;;1.38;;
25435;SDS011;13363;52.772;-3.890;2023-06-19T13:56:41;2.35;;;1.50;;
25435;SDS011;13363;52.772;-3.890;2023-06-19T13:59:07;3.17;;;1.83;;
25435;SDS011;13363;52.772;-3.890;2023-06-19T14:01:33;2.50;;;1.70;;
25435;SDS011;13363;52.772;-3.890;2023-06-19T14:03:59;2.40;;;1.50;;
25435;SDS011;13363;52.772;-3.890;2023-06-19T14:06:25;3.60;;;1.57;;
25435;SDS011;13363;52.772;-3.890;2023-06-19T14:08:51;1.70;;;1.60;;
25435;SDS011;13363;52.772;-3.890;2023-06-19T14:11:17;2.05;;;1.77;;
25435;SDS011;13363;52.772;-3.890;2023-06-19T14:13:43;1.77;;;1.67;;
25435;SDS011;13363;52.772;-3.890;2023-06-19T14:16:09;1.73;;;1.63;;
25435;SDS011;13363;52.772;-3.890;2023-06-19T14:18:35;2.67;;;1.87;;
25435;SDS011;13363;52.772;-3.890;2023-06-19T14:21:02;2.83;;;1.50;;
25435;SDS011;13363;52.772;-3.890;2023-06-19T14:23:28;1.50;;;1.40;;
25435;SDS011;13363;52.772;-3.890;2023-06-19T14:25:54;1.60;;;1.50;;
25435;SDS011;13363;52.772;-3.890;2023-06-19T14:28:20;2.17;;;1.50;;
25435;SDS011;13363;52.772;-3.890;2023-06-19T14:30:46;1.25;;;1.15;;
25435;SDS011;13363;52.772;-3.890;2023-06-19T14:33:12;1.42;;;1.33;;
25435;SDS011;13363;52.772;-3.890;2023-06-19T14:35:41;1.40;;;1.30;;
25435;SDS011;13363;52.772;-3.890;2023-06-19T14:38:11;2.13;;;1.52;;
25435;SDS011;13363;52.772;-3.890;2023-06-19T14:40:39;1.73;;;1.38;;
25435;SDS011;13363;52.772;-3.890;2023-06-19T14:43:05;3.03;;;2.03;;
25435;SDS011;13363;52.772;-3.890;2023-06-19T14:45:31;4.27;;;1.50;;
25435;SDS011;13363;52.772;-3.890;2023-06-19T14:47:57;1.43;;;1.33;;
25435;SDS011;13363;52.772;-3.890;2023-06-19T14:50:24;2.73;;;2.10;;
25435;SDS011;13363;52.772;-3.890;2023-06-19T14:52:50;2.47;;;1.77;;
25435;SDS011;13363;52.772;-3.890;2023-06-19T14:55:16;3.17;;;1.75;;
25435;SDS011;13363;52.772;-3.890;2023-06-19T14:57:42;2.00;;;1.90;;
25435;SDS011;13363;52.772;-3.890;2023-06-19T15:00:07;3.20;;;1.93;;
25435;SDS011;13363;52.772;-3.890;2023-06-19T15:02:34;3.10;;;1.87;;
25435;SDS011;13363;52.772;-3.890;2023-06-19T15:05:01;3.53;;;2.00;;
25435;SDS011;13363;52.772;-3.890;2023-06-19T15:07:27;3.22;;;1.90;;
25435;SDS011;13363;52.772;-3.890;2023-06-19T15:09:52;3.60;;;1.90;;
25435;SDS011;13363;52.772;-3.890;2023-06-19T15:12:18;2.42;;;1.60;;
25435;SDS011;13363;52.772;-3.890;2023-06-19T15:14:44;2.03;;;1.92;;
25435;SDS011;13363;52.772;-3.890;2023-06-19T15:17:10;2.05;;;1.67;;
25435;SDS011;13363;52.772;-3.890;2023-06-19T15:19:36;5.47;;;2.40;;
25435;SDS011;13363;52.772;-3.890;2023-06-19T15:22:02;4.32;;;1.70;;
25435;SDS011;13363;52.772;-3.890;2023-06-19T15:27:45;3.38;;;1.98;;
25435;SDS011;13363;52.772;-3.890;2023-06-19T15:30:11;2.40;;;2.20;;
25435;SDS011;13363;52.772;-3.890;2023-06-19T15:32:37;4.80;;;2.77;;
25435;SDS011;13363;52.772;-3.890;2023-06-19T15:35:03;4.03;;;2.17;;
25435;SDS011;13363;52.772;-3.890;2023-06-19T15:37:29;3.87;;;2.20;;
25435;SDS011;13363;52.772;-3.890;2023-06-19T15:39:55;2.57;;;2.10;;
25435;SDS011;13363;52.772;-3.890;2023-06-19T15:42:21;2.58;;;2.33;;
25435;SDS011;13363;52.772;-3.890;2023-06-19T15:44:47;2.50;;;2.03;;
25435;SDS011;13363;52.772;-3.890;2023-06-19T15:47:14;3.92;;;2.10;;
25435;SDS011;13363;52.772;-3.890;2023-06-19T15:49:41;3.30;;;2.10;;
25435;SDS011;13363;52.772;-3.890;2023-06-19T15:52:07;4.53;;;2.08;;
25435;SDS011;13363;52.772;-3.890;2023-06-19T15:54:32;4.22;;;1.90;;
25435;SDS011;13363;52.772;-3.890;2023-06-19T15:56:58;3.67;;;2.05;;
25435;SDS011;13363;52.772;-3.890;2023-06-19T15:59:26;3.90;;;1.90;;
25435;SDS011;13363;52.772;-3.890;2023-06-19T16:01:56;3.60;;;2.00;;
25435;SDS011;13363;52.772;-3.890;2023-06-19T16:04:24;3.25;;;2.00;;
25435;SDS011;13363;52.772;-3.890;2023-06-19T16:06:52;3.28;;;2.05;;
25435;SDS011;13363;52.772;-3.890;2023-06-19T16:09:20;5.22;;;1.65;;
25435;SDS011;13363;52.772;-3.890;2023-06-19T16:11:46;4.63;;;1.83;;
25435;SDS011;13363;52.772;-3.890;2023-06-19T16:17:26;2.30;;;2.10;;
25435;SDS011;13363;52.772;-3.890;2023-06-19T16:19:52;2.10;;;1.70;;
25435;SDS011;13363;52.772;-3.890;2023-06-19T16:22:18;4.38;;;1.90;;
25435;SDS011;13363;52.772;-3.890;2023-06-19T16:24:44;5.20;;;1.95;;
25435;SDS011;13363;52.772;-3.890;2023-06-19T16:27:09;5.47;;;2.67;;
25435;SDS011;13363;52.772;-3.890;2023-06-19T16:29:35;2.88;;;2.08;;
25435;SDS011;13363;52.772;-3.890;2023-06-19T16:32:01;2.37;;;1.73;;
25435;SDS011;13363;52.772;-3.890;2023-06-19T16:34:27;3.40;;;1.95;;
25435;SDS011;13363;52.772;-3.890;2023-06-19T16:36:53;2.63;;;2.40;;
25435;SDS011;13363;52.772;-3.890;2023-06-19T16:39:19;3.60;;;2.45;;
25435;SDS011;13363;52.772;-3.890;2023-06-19T16:41:44;3.13;;;2.03;;
25435;SDS011;13363;52.772;-3.890;2023-06-19T16:44:10;25.63;;;2.58;;
25435;SDS011;13363;52.772;-3.890;2023-06-19T16:46:37;5.78;;;2.15;;
25435;SDS011;13363;52.772;-3.890;2023-06-19T16:49:03;3.35;;;2.17;;
25435;SDS011;13363;52.772;-3.890;2023-06-19T16:51:33;4.95;;;2.25;;
25435;SDS011;13363;52.772;-3.890;2023-06-19T16:54:01;6.32;;;1.90;;
25435;SDS011;13363;52.772;-3.890;2023-06-19T16:56:30;2.38;;;2.17;;
25435;SDS011;13363;52.772;-3.890;2023-06-19T16:58:57;3.47;;;2.10;;
25435;SDS011;13363;52.772;-3.890;2023-06-19T17:01:32;2.10;;;1.90;;
25435;SDS011;13363;52.772;-3.890;2023-06-19T17:03:58;5.05;;;2.53;;
25435;SDS011;13363;52.772;-3.890;2023-06-19T17:06:24;4.57;;;2.60;;
25435;SDS011;13363;52.772;-3.890;2023-06-19T17:08:50;3.97;;;2.15;;
25435;SDS011;13363;52.772;-3.890;2023-06-19T17:11:16;3.78;;;2.30;;
25435;SDS011;13363;52.772;-3.890;2023-06-19T17:13:42;5.07;;;2.55;;
25435;SDS011;13363;52.772;-3.890;2023-06-19T17:16:08;3.55;;;2.30;;
25435;SDS011;13363;52.772;-3.890;2023-06-19T17:18:34;2.58;;;2.30;;
25435;SDS011;13363;52.772;-3.890;2023-06-19T17:21:00;5.22;;;2.53;;
25435;SDS011;13363;52.772;-3.890;2023-06-19T17:23:26;3.87;;;2.20;;
25435;SDS011;13363;52.772;-3.890;2023-06-19T17:25:52;6.78;;;2.58;;
25435;SDS011;13363;52.772;-3.890;2023-06-19T17:28:18;5.70;;;3.17;;
25435;SDS011;13363;52.772;-3.890;2023-06-19T17:30:46;5.70;;;2.10;;
25435;SDS011;13363;52.772;-3.890;2023-06-19T17:33:14;4.15;;;2.45;;
25435;SDS011;13363;52.772;-3.890;2023-06-19T17:35:42;5.47;;;2.50;;
25435;SDS011;13363;52.772;-3.890;2023-06-19T17:38:11;7.53;;;2.50;;
25435;SDS011;13363;52.772;-3.890;2023-06-19T17:40:37;5.07;;;2.57;;
25435;SDS011;13363;52.772;-3.890;2023-06-19T17:43:03;4.73;;;2.57;;
25435;SDS011;13363;52.772;-3.890;2023-06-19T17:45:28;3.40;;;2.60;;
25435;SDS011;13363;52.772;-3.890;2023-06-19T17:47:54;5.57;;;2.63;;
25435;SDS011;13363;52.772;-3.890;2023-06-19T17:50:20;3.57;;;2.50;;
25435;SDS011;13363;52.772;-3.890;2023-06-19T17:52:46;3.93;;;2.40;;
25435;SDS011;13363;52.772;-3.890;2023-06-19T17:55:11;4.77;;;2.53;;
25435;SDS011;13363;52.772;-3.890;2023-06-19T17:57:38;5.40;;;2.60;;
25435;SDS011;13363;52.772;-3.890;2023-06-19T18:00:04;6.43;;;2.77;;
25435;SDS011;13363;52.772;-3.890;2023-06-19T18:02:33;2.17;;;2.00;;
25435;SDS011;13363;52.772;-3.890;2023-06-19T18:04:59;6.07;;;2.60;;
25435;SDS011;13363;52.772;-3.890;2023-06-19T18:07:25;3.40;;;2.20;;
25435;SDS011;13363;52.772;-3.890;2023-06-19T18:09:51;4.00;;;2.57;;
25435;SDS011;13363;52.772;-3.890;2023-06-19T18:12:20;3.03;;;2.83;;
25435;SDS011;13363;52.772;-3.890;2023-06-19T18:18:08;4.13;;;2.50;;
25435;SDS011;13363;52.772;-3.890;2023-06-19T18:20:33;4.90;;;2.73;;
25435;SDS011;13363;52.772;-3.890;2023-06-19T18:22:59;4.93;;;2.70;;
25435;SDS011;13363;52.772;-3.890;2023-06-19T18:25:25;5.53;;;3.03;;
25435;SDS011;13363;52.772;-3.890;2023-06-19T18:27:57;4.40;;;2.33;;
25435;SDS011;13363;52.772;-3.890;2023-06-19T18:30:23;5.53;;;2.87;;
25435;SDS011;13363;52.772;-3.890;2023-06-19T18:32:49;4.93;;;2.93;;
25435;SDS011;13363;52.772;-3.890;2023-06-19T18:35:14;3.40;;;2.40;;
25435;SDS011;13363;52.772;-3.890;2023-06-19T18:37:40;4.13;;;2.53;;
25435;SDS011;13363;52.772;-3.890;2023-06-19T18:40:06;4.93;;;3.00;;
25435;SDS011;13363;52.772;-3.890;2023-06-19T18:42:32;5.23;;;2.83;;
25435;SDS011;13363;52.772;-3.890;2023-06-19T18:44:59;3.63;;;2.90;;
25435;SDS011;13363;52.772;-3.890;2023-06-19T18:47:24;8.13;;;3.20;;
25435;SDS011;13363;52.772;-3.890;2023-06-19T18:49:50;5.97;;;2.70;;
25435;SDS011;13363;52.772;-3.890;2023-06-19T18:52:16;4.77;;;2.60;;
25435;SDS011;13363;52.772;-3.890;2023-06-19T18:54:42;5.10;;;2.97;;
25435;SDS011;13363;52.772;-3.890;2023-06-19T18:57:07;6.37;;;2.87;;
25435;SDS011;13363;52.772;-3.890;2023-06-19T18:59:33;4.10;;;3.30;;
25435;SDS011;13363;52.772;-3.890;2023-06-19T19:02:00;5.93;;;2.87;;
25435;SDS011;13363;52.772;-3.890;2023-06-19T19:04:26;3.50;;;2.80;;
25435;SDS011;13363;52.772;-3.890;2023-06-19T19:06:52;3.40;;;3.07;;
25435;SDS011;13363;52.772;-3.890;2023-06-19T19:09:18;4.00;;;2.70;;
25435;SDS011;13363;52.772;-3.890;2023-06-19T19:11:44;3.20;;;2.87;;
25435;SDS011;13363;52.772;-3.890;2023-06-19T19:14:13;4.90;;;3.37;;
25435;SDS011;13363;52.772;-3.890;2023-06-19T19:27:56;4.27;;;3.13;;
25435;SDS011;13363;52.772;-3.890;2023-06-19T19:30:22;4.70;;;2.67;;
25435;SDS011;13363;52.772;-3.890;2023-06-19T19:32:50;4.63;;;2.87;;
25435;SDS011;13363;52.772;-3.890;2023-06-19T19:35:16;6.53;;;3.23;;
25435;SDS011;13363;52.772;-3.890;2023-06-19T19:37:42;4.90;;;2.70;;
25435;SDS011;13363;52.772;-3.890;2023-06-19T19:40:08;8.90;;;3.40;;
25435;SDS011;13363;52.772;-3.890;2023-06-19T19:42:35;6.03;;;3.63;;
25435;SDS011;13363;52.772;-3.890;2023-06-19T19:45:01;6.90;;;3.10;;
25435;SDS011;13363;52.772;-3.890;2023-06-19T19:47:27;4.07;;;2.83;;
25435;SDS011;13363;52.772;-3.890;2023-06-19T21:28:27;4.27;;;2.93;;
25435;SDS011;13363;52.772;-3.890;2023-06-19T21:30:53;3.50;;;3.00;;
25435;SDS011;13363;52.772;-3.890;2023-06-19T21:33:19;5.17;;;3.10;;
25435;SDS011;13363;52.772;-3.890;2023-06-19T21:35:45;3.90;;;3.40;;
25435;SDS011;13363;52.772;-3.890;2023-06-19T21:38:11;4.87;;;3.37;;
25435;SDS011;13363;52.772;-3.890;2023-06-19T21:40:37;4.37;;;3.70;;
25435;SDS011;13363;52.772;-3.890;2023-06-19T21:43:02;5.67;;;3.50;;
25435;SDS011;13363;52.772;-3.890;2023-06-19T21:45:28;3.17;;;2.87;;
25435;SDS011;13363;52.772;-3.890;2023-06-19T21:47:54;3.83;;;2.97;;
25435;SDS011;13363;52.772;-3.890;2023-06-19T21:50:21;4.23;;;3.20;;
25435;SDS011;13363;52.772;-3.890;2023-06-19T21:52:47;4.00;;;3.60;;
25435;SDS011;13363;52.772;-3.890;2023-06-19T21:55:13;4.47;;;3.30;;
25435;SDS011;13363;52.772;-3.890;2023-06-19T21:57:39;7.93;;;3.73;;
25435;SDS011;13363;52.772;-3.890;2023-06-19T22:00:07;5.13;;;3.10;;
25435;SDS011;13363;52.772;-3.890;2023-06-19T22:02:37;4.53;;;3.10;;
25435;SDS011;13363;52.772;-3.890;2023-06-19T22:05:04;4.93;;;3.00;;
25435;SDS011;13363;52.772;-3.890;2023-06-19T22:07:30;6.10;;;3.33;;
25435;SDS011;13363;52.772;-3.890;2023-06-19T22:09:56;4.10;;;2.90;;
25435;SDS011;13363;52.772;-3.890;2023-06-19T22:12:22;4.57;;;3.20;;
25435;SDS011;13363;52.772;-3.890;2023-06-19T22:14:48;4.77;;;2.87;;
25435;SDS011;13363;52.772;-3.890;2023-06-19T22:17:14;3.03;;;2.73;;
25435;SDS011;13363;52.772;-3.890;2023-06-19T22:19:39;5.73;;;2.90;;
25435;SDS011;13363;52.772;-3.890;2023-06-19T22:22:06;4.67;;;3.07;;
25435;SDS011;13363;52.772;-3.890;2023-06-19T22:24:31;3.00;;;2.63;;
25435;SDS011;13363;52.772;-3.890;2023-06-19T22:27:01;3.57;;;3.00;;
25435;SDS011;13363;52.772;-3.890;2023-06-19T22:29:28;3.60;;;2.97;;
25435;SDS011;13363;52.772;-3.890;2023-06-19T22:31:54;4.43;;;3.20;;
25435;SDS011;13363;52.772;-3.890;2023-06-19T22:34:20;3.43;;;3.13;;
25435;SDS011;13363;52.772;-3.890;2023-06-19T22:36:46;3.87;;;2.70;;
25435;SDS011;13363;52.772;-3.890;2023-06-19T22:39:12;4.60;;;3.40;;
25435;SDS011;13363;52.772;-3.890;2023-06-19T22:41:37;3.53;;;3.23;;
25435;SDS011;13363;52.772;-3.890;2023-06-19T22:44:04;3.83;;;3.17;;
25435;SDS011;13363;52.772;-3.890;2023-06-19T22:46:30;5.10;;;3.27;;
25435;SDS011;13363;52.772;-3.890;2023-06-19T22:48:56;4.13;;;3.23;;
25435;SDS011;13363;52.772;-3.890;2023-06-19T22:51:22;4.37;;;3.33;;
25435;SDS011;13363;52.772;-3.890;2023-06-19T22:53:48;6.47;;;3.43;;
25435;SDS011;13363;52.772;-3.890;2023-06-19T22:56:15;3.03;;;2.80;;
25435;SDS011;13363;52.772;-3.890;2023-06-19T22:58:41;3.40;;;3.10;;
25435;SDS011;13363;52.772;-3.890;2023-06-19T23:01:07;3.60;;;2.77;;
25435;SDS011;13363;52.772;-3.890;2023-06-19T23:03:40;4.50;;;2.97;;
25435;SDS011;13363;52.772;-3.890;2023-06-19T23:06:06;3.50;;;3.20;;
25435;SDS011;13363;52.772;-3.890;2023-06-19T23:08:36;4.97;;;2.87;;
25435;SDS011;13363;52.772;-3.890;2023-06-19T23:11:05;4.30;;;3.20;;
25435;SDS011;13363;52.772;-3.890;2023-06-19T23:13:32;3.87;;;3.37;;
25435;SDS011;13363;52.772;-3.890;2023-06-19T23:15:59;4.50;;;3.50;;
25435;SDS011;13363;52.772;-3.890;2023-06-19T23:18:24;5.47;;;3.10;;
25435;SDS011;13363;52.772;-3.890;2023-06-19T23:20:50;3.10;;;2.90;;
25435;SDS011;13363;52.772;-3.890;2023-06-19T23:23:16;4.67;;;3.33;;
25435;SDS011;13363;52.772;-3.890;2023-06-19T23:25:48;5.63;;;2.90;;
25435;SDS011;13363;52.772;-3.890;2023-06-19T23:28:15;3.37;;;3.07;;
25435;SDS011;13363;52.772;-3.890;2023-06-19T23:30:45;3.37;;;3.03;;
25435;SDS011;13363;52.772;-3.890;2023-06-19T23:33:16;4.40;;;3.37;;
25435;SDS011;13363;52.772;-3.890;2023-06-19T23:35:45;3.40;;;2.53;;
25435;SDS011;13363;52.772;-3.890;2023-06-19T23:38:11;4.10;;;3.00;;
25435;SDS011;13363;52.772;-3.890;2023-06-19T23:40:38;3.53;;;3.23;;
25435;SDS011;13363;52.772;-3.890;2023-06-19T23:43:05;3.07;;;2.87;;
25435;SDS011;13363;52.772;-3.890;2023-06-19T23:45:31;4.07;;;3.10;;
25435;SDS011;13363;52.772;-3.890;2023-06-19T23:47:57;4.33;;;2.93;;
25435;SDS011;13363;52.772;-3.890;2023-06-19T23:50:23;6.80;;;2.80;;
25435;SDS011;13363;52.772;-3.890;2023-06-19T23:52:48;4.37;;;3.30;;
25435;SDS011;13363;52.772;-3.890;2023-06-19T23:55:16;5.03;;;3.20;;
25435;SDS011;13363;52.772;-3.890;2023-06-19T23:57:42;3.53;;;2.87;;
